Time,TemperatureF,DewpointF,PressureIn,WindDirection,WindDirectionDegrees,WindSpeedMPH,WindSpeedGustMPH,Humidity,HourlyPrecipIn,Conditions,Clouds,dailyrainin,SoftwareType,DateUTC
2013-06-29 00:01:00,71.5,70.6,29.55,South,174,0.0,1.0,97,0.05,,,2.24,Wunderground v.1.15,2013-06-29 04:01:00,
2013-06-29 00:02:00,71.5,70.6,29.55,South,174,0.0,1.0,97,0.04,,,2.24,Wunderground v.1.15,2013-06-29 04:02:00,
2013-06-29 00:04:00,71.4,70.5,29.55,South,174,0.0,1.0,97,0.04,,,2.25,Wunderground v.1.15,2013-06-29 04:04:00,
2013-06-29 00:05:00,71.3,70.4,29.55,South,174,0.0,1.0,97,0.04,,,2.25,Wunderground v.1.15,2013-06-29 04:05:00,
2013-06-29 00:06:00,71.3,70.4,29.55,South,174,0.0,1.0,97,0.04,,,2.25,Wunderground v.1.15,2013-06-29 04:06:00,
2013-06-29 00:12:00,71.1,70.2,29.55,South,174,0.0,1.0,97,0.04,,,2.25,Wunderground v.1.15,2013-06-29 04:12:00,
2013-06-29 00:18:00,70.9,70.0,29.55,South,174,0.0,1.0,97,0.04,,,2.26,Wunderground v.1.15,2013-06-29 04:18:00,
2013-06-29 00:24:00,70.8,69.9,29.54,South,174,0.0,1.0,97,0.04,,,2.26,Wunderground v.1.15,2013-06-29 04:24:00,
2013-06-29 00:30:00,70.6,69.7,29.54,South,174,0.0,1.0,97,0.04,,,2.26,Wunderground v.1.15,2013-06-29 04:30:00,
2013-06-29 00:35:00,70.4,69.5,29.54,South,174,0.0,1.0,97,0.00,,,2.26,Wunderground v.1.15,2013-06-29 04:35:00,
2013-06-29 00:41:00,70.2,69.3,29.54,South,174,0.0,1.0,97,0.00,,,2.26,Wunderground v.1.15,2013-06-29 04:41:00,
2013-06-29 00:47:00,70.1,69.2,29.54,South,174,0.0,1.0,97,0.00,,,2.27,Wunderground v.1.15,2013-06-29 04:47:00,
2013-06-29 00:53:00,70.0,69.1,29.53,South,174,0.0,1.0,97,0.00,,,2.27,Wunderground v.1.15,2013-06-29 04:53:00,
2013-06-29 00:59:00,69.9,69.0,29.54,South,174,0.0,1.0,97,0.00,,,2.27,Wunderground v.1.15,2013-06-29 04:59:00,
2013-06-29 01:05:00,69.8,68.9,29.53,South,174,0.0,1.0,97,0.00,,,0.00,Wunderground v.1.15,2013-06-29 05:05:00,
2013-06-29 01:11:00,69.7,68.8,29.53,South,174,0.0,1.0,97,0.00,,,0.00,Wunderground v.1.15,2013-06-29 05:11:00,
2013-06-29 01:16:00,69.6,68.7,29.53,South,174,0.0,1.0,97,0.00,,,0.01,Wunderground v.1.15,2013-06-29 05:16:00,
2013-06-29 01:22:00,69.5,68.6,29.52,South,174,0.0,1.0,97,0.00,,,0.01,Wunderground v.1.15,2013-06-29 05:22:00,
2013-06-29 01:28:00,69.5,68.6,29.52,South,174,0.0,1.0,97,0.00,,,0.01,Wunderground v.1.15,2013-06-29 05:28:00,
2013-06-29 01:34:00,69.4,68.5,29.52,South,174,0.0,1.0,97,0.00,,,0.01,Wunderground v.1.15,2013-06-29 05:34:00,
2013-06-29 01:40:00,69.3,68.4,29.51,South,174,0.0,1.0,97,0.00,,,0.01,Wunderground v.1.15,2013-06-29 05:40:00,
2013-06-29 01:46:00,69.2,68.3,29.51,South,174,0.0,1.0,97,0.00,,,0.01,Wunderground v.1.15,2013-06-29 05:46:00,
2013-06-29 01:52:00,69.1,68.2,29.51,South,174,0.0,1.0,97,0.00,,,0.01,Wunderground v.1.15,2013-06-29 05:52:00,
2013-06-29 01:57:00,69.1,68.2,29.51,South,174,1.0,1.0,97,0.00,,,0.01,Wunderground v.1.15,2013-06-29 05:57:00,
2013-06-29 02:02:00,69.0,68.1,29.51,South,174,0.0,1.0,97,0.00,,,0.01,Wunderground v.1.15,2013-06-29 06:02:00,
2013-06-29 02:08:00,69.0,68.1,29.51,South,174,0.0,1.0,97,0.00,,,0.01,Wunderground v.1.15,2013-06-29 06:08:00,
2013-06-29 02:14:00,68.9,68.0,29.51,South,174,0.0,1.0,97,0.00,,,0.01,Wunderground v.1.15,2013-06-29 06:14:00,
2013-06-29 02:20:00,68.8,67.9,29.51,South,174,0.0,0.0,97,0.00,,,0.01,Wunderground v.1.15,2013-06-29 06:20:00,
2013-06-29 02:26:00,68.8,67.9,29.51,WSW,247,1.0,1.0,97,0.00,,,0.01,Wunderground v.1.15,2013-06-29 06:26:00,
2013-06-29 02:31:00,68.9,68.0,29.51,WSW,248,1.0,2.0,97,0.00,,,0.01,Wunderground v.1.15,2013-06-29 06:31:00,
2013-06-29 02:37:00,68.9,68.0,29.51,WSW,248,1.0,2.0,97,0.00,,,0.01,Wunderground v.1.15,2013-06-29 06:37:00,
2013-06-29 02:42:00,69.0,68.1,29.52,WSW,248,1.0,2.0,97,0.00,,,0.01,Wunderground v.1.15,2013-06-29 06:42:00,
2013-06-29 02:48:00,69.1,68.2,29.52,WSW,250,1.0,2.0,97,0.00,,,0.01,Wunderground v.1.15,2013-06-29 06:48:00,
2013-06-29 02:54:00,69.2,68.3,29.51,WSW,250,1.0,1.0,97,0.00,,,0.01,Wunderground v.1.15,2013-06-29 06:54:00,
2013-06-29 03:00:00,69.2,68.3,29.52,WSW,250,1.0,1.0,97,0.00,,,0.01,Wunderground v.1.15,2013-06-29 07:00:00,
2013-06-29 03:06:00,69.2,68.3,29.51,WSW,250,0.0,1.0,97,0.00,,,0.01,Wunderground v.1.15,2013-06-29 07:06:00,
2013-06-29 03:12:00,69.1,68.2,29.51,WSW,250,0.0,1.0,97,0.00,,,0.01,Wunderground v.1.15,2013-06-29 07:12:00,
2013-06-29 03:18:00,69.1,68.2,29.52,WSW,250,0.0,1.0,97,0.00,,,0.01,Wunderground v.1.15,2013-06-29 07:18:00,
2013-06-29 03:24:00,69.0,68.1,29.52,WSW,250,0.0,1.0,97,0.00,,,0.01,Wunderground v.1.15,2013-06-29 07:24:00,
2013-06-29 03:29:00,68.9,68.0,29.52,WSW,250,0.0,1.0,97,0.00,,,0.01,Wunderground v.1.15,2013-06-29 07:29:00,
2013-06-29 03:35:00,68.8,67.9,29.51,WSW,250,0.0,1.0,97,0.00,,,0.01,Wunderground v.1.15,2013-06-29 07:35:00,
2013-06-29 03:41:00,68.6,67.7,29.51,WSW,250,1.0,1.0,97,0.00,,,0.01,Wunderground v.1.15,2013-06-29 07:41:00,
2013-06-29 03:47:00,68.6,67.7,29.51,WSW,250,1.0,2.0,97,0.00,,,0.01,Wunderground v.1.15,2013-06-29 07:47:00,
2013-06-29 03:53:00,68.6,67.7,29.50,WSW,250,1.0,1.0,97,0.00,,,0.01,Wunderground v.1.15,2013-06-29 07:53:00,
2013-06-29 03:59:00,68.6,67.7,29.51,WSW,250,1.0,2.0,97,0.00,,,0.01,Wunderground v.1.15,2013-06-29 07:59:00,
2013-06-29 04:05:00,68.6,67.7,29.52,WSW,250,1.0,2.0,97,0.00,,,0.01,Wunderground v.1.15,2013-06-29 08:05:00,
2013-06-29 04:10:00,68.6,67.7,29.52,WSW,250,1.0,2.0,97,0.00,,,0.01,Wunderground v.1.15,2013-06-29 08:10:00,
2013-06-29 04:16:00,68.6,67.7,29.52,WSW,250,1.0,2.0,97,0.00,,,0.01,Wunderground v.1.15,2013-06-29 08:16:00,
2013-06-29 04:22:00,68.6,67.7,29.52,WSW,250,1.0,2.0,97,0.00,,,0.01,Wunderground v.1.15,2013-06-29 08:22:00,
2013-06-29 04:28:00,68.7,67.8,29.52,WSW,250,1.0,2.0,97,0.00,,,0.01,Wunderground v.1.15,2013-06-29 08:28:00,
2013-06-29 04:34:00,68.7,67.8,29.52,WSW,250,1.0,2.0,97,0.00,,,0.01,Wunderground v.1.15,2013-06-29 08:34:00,
2013-06-29 04:40:00,68.8,67.9,29.52,WSW,250,1.0,2.0,97,0.00,,,0.01,Wunderground v.1.15,2013-06-29 08:40:00,
2013-06-29 04:45:00,68.8,67.9,29.53,WSW,250,0.0,2.0,97,0.00,,,0.01,Wunderground v.1.15,2013-06-29 08:45:00,
2013-06-29 04:51:00,68.9,68.0,29.53,WSW,250,0.0,2.0,97,0.00,,,0.01,Wunderground v.1.15,2013-06-29 08:51:00,
2013-06-29 04:57:00,68.9,68.0,29.53,WSW,250,0.0,2.0,97,0.00,,,0.01,Wunderground v.1.15,2013-06-29 08:57:00,
2013-06-29 05:03:00,69.0,68.1,29.53,WSW,250,0.0,2.0,97,0.00,,,0.01,Wunderground v.1.15,2013-06-29 09:03:00,
2013-06-29 05:09:00,69.0,68.1,29.54,WSW,250,0.0,2.0,97,0.00,,,0.01,Wunderground v.1.15,2013-06-29 09:09:00,
2013-06-29 05:15:00,69.1,68.5,29.54,WSW,250,0.0,2.0,98,0.00,,,0.01,Wunderground v.1.15,2013-06-29 09:15:00,
2013-06-29 05:21:00,69.1,68.5,29.55,WSW,250,0.0,2.0,98,0.00,,,0.01,Wunderground v.1.15,2013-06-29 09:21:00,
2013-06-29 05:26:00,69.1,68.5,29.55,WSW,250,0.0,2.0,98,0.00,,,0.01,Wunderground v.1.15,2013-06-29 09:26:00,
2013-06-29 05:32:00,69.2,68.6,29.55,WSW,250,0.0,2.0,98,0.00,,,0.01,Wunderground v.1.15,2013-06-29 09:32:00,
2013-06-29 05:38:00,69.2,68.6,29.55,WSW,250,0.0,2.0,98,0.00,,,0.01,Wunderground v.1.15,2013-06-29 09:38:00,
2013-06-29 05:44:00,69.2,68.6,29.55,WSW,250,0.0,2.0,98,0.00,,,0.01,Wunderground v.1.15,2013-06-29 09:44:00,
2013-06-29 05:50:00,69.2,68.6,29.55,WSW,250,0.0,2.0,98,0.00,,,0.01,Wunderground v.1.15,2013-06-29 09:50:00,
2013-06-29 05:56:00,69.2,68.6,29.55,WSW,250,0.0,2.0,98,0.00,,,0.01,Wunderground v.1.15,2013-06-29 09:56:00,
2013-06-29 06:01:00,69.3,68.7,29.54,WSW,250,0.0,2.0,98,0.00,,,0.01,Wunderground v.1.15,2013-06-29 10:01:00,
2013-06-29 06:06:00,69.3,68.7,29.55,WSW,250,0.0,2.0,98,0.00,,,0.01,Wunderground v.1.15,2013-06-29 10:06:00,
2013-06-29 06:12:00,69.3,68.7,29.55,WSW,250,0.0,0.0,98,0.00,,,0.01,Wunderground v.1.15,2013-06-29 10:12:00,
2013-06-29 06:18:00,69.4,68.8,29.55,WSW,250,0.0,1.0,98,0.00,,,0.01,Wunderground v.1.15,2013-06-29 10:18:00,
2013-06-29 06:24:00,69.4,68.8,29.55,WSW,250,1.0,1.0,98,0.00,,,0.01,Wunderground v.1.15,2013-06-29 10:24:00,
2013-06-29 06:30:00,69.4,68.8,29.55,WSW,250,1.0,1.0,98,0.00,,,0.01,Wunderground v.1.15,2013-06-29 10:30:00,
2013-06-29 06:35:00,69.4,68.8,29.55,WSW,250,1.0,1.0,98,0.00,,,0.01,Wunderground v.1.15,2013-06-29 10:35:00,
2013-06-29 06:41:00,69.6,69.0,29.55,WSW,250,1.0,1.0,98,0.00,,,0.01,Wunderground v.1.15,2013-06-29 10:41:00,
2013-06-29 06:47:00,69.8,69.2,29.55,WSW,250,0.0,1.0,98,0.00,,,0.01,Wunderground v.1.15,2013-06-29 10:47:00,
2013-06-29 06:53:00,70.1,69.5,29.55,South,178,1.0,5.0,98,0.00,,,0.01,Wunderground v.1.15,2013-06-29 10:53:00,
2013-06-29 06:59:00,70.2,69.6,29.55,South,180,1.0,5.0,98,0.00,,,0.01,Wunderground v.1.15,2013-06-29 10:59:00,
2013-06-29 07:05:00,70.4,69.8,29.55,South,180,1.0,3.0,98,0.00,,,0.01,Wunderground v.1.15,2013-06-29 11:05:00,
2013-06-29 07:11:00,70.7,70.1,29.56,South,180,1.0,3.0,98,0.00,,,0.01,Wunderground v.1.15,2013-06-29 11:11:00,
2013-06-29 07:17:00,71.1,70.5,29.56,South,180,1.0,3.0,98,0.00,,,0.01,Wunderground v.1.15,2013-06-29 11:17:00,
2013-06-29 07:22:00,71.5,70.9,29.56,South,180,0.0,3.0,98,0.00,,,0.01,Wunderground v.1.15,2013-06-29 11:22:00,
2013-06-29 07:28:00,71.6,71.0,29.57,South,180,0.0,3.0,98,0.00,,,0.01,Wunderground v.1.15,2013-06-29 11:28:00,
2013-06-29 07:34:00,72.0,71.4,29.57,South,180,0.0,3.0,98,0.00,,,0.01,Wunderground v.1.15,2013-06-29 11:34:00,
2013-06-29 07:40:00,72.4,71.8,29.57,South,180,0.0,3.0,98,0.00,,,0.01,Wunderground v.1.15,2013-06-29 11:40:00,
2013-06-29 07:46:00,72.9,72.3,29.57,South,180,0.0,3.0,98,0.00,,,0.01,Wunderground v.1.15,2013-06-29 11:46:00,
2013-06-29 07:52:00,72.8,72.2,29.57,South,180,0.0,3.0,98,0.00,,,0.01,Wunderground v.1.15,2013-06-29 11:52:00,
2013-06-29 07:58:00,72.9,72.3,29.57,South,180,0.0,3.0,98,0.00,,,0.01,Wunderground v.1.15,2013-06-29 11:58:00,
2013-06-29 08:04:00,73.1,72.5,29.57,South,180,1.0,1.0,98,0.00,,,0.01,Wunderground v.1.15,2013-06-29 12:04:00,
2013-06-29 08:10:00,73.4,72.8,29.58,South,180,0.0,0.0,98,0.00,,,0.01,Wunderground v.1.15,2013-06-29 12:10:00,
2013-06-29 08:16:00,73.8,73.2,29.58,South,180,0.0,1.0,98,0.00,,,0.01,Wunderground v.1.15,2013-06-29 12:16:00,
2013-06-29 08:22:00,74.2,73.6,29.58,South,180,0.0,2.0,98,0.00,,,0.01,Wunderground v.1.15,2013-06-29 12:22:00,
2013-06-29 08:28:00,74.5,73.9,29.58,South,180,1.0,2.0,98,0.00,,,0.01,Wunderground v.1.15,2013-06-29 12:28:00,
2013-06-29 08:33:00,74.7,74.1,29.59,South,180,0.0,1.0,98,0.00,,,0.01,Wunderground v.1.15,2013-06-29 12:33:00,
2013-06-29 08:39:00,74.7,74.1,29.59,South,180,1.0,1.0,98,0.00,,,0.01,Wunderground v.1.15,2013-06-29 12:39:00,
2013-06-29 08:45:00,74.7,74.1,29.59,South,180,0.0,0.0,98,0.00,,,0.01,Wunderground v.1.15,2013-06-29 12:45:00,
2013-06-29 08:51:00,74.9,74.3,29.59,South,180,0.0,0.0,98,0.00,,,0.01,Wunderground v.1.15,2013-06-29 12:51:00,
2013-06-29 08:57:00,75.1,74.5,29.59,WSW,248,1.0,2.0,98,0.00,,,0.01,Wunderground v.1.15,2013-06-29 12:57:00,
2013-06-29 09:03:00,75.2,74.3,29.59,WSW,248,1.0,1.0,97,0.00,,,0.01,Wunderground v.1.15,2013-06-29 13:03:00,
2013-06-29 09:09:00,75.3,74.4,29.59,SW,215,1.0,2.0,97,0.00,,,0.01,Wunderground v.1.15,2013-06-29 13:09:00,
2013-06-29 09:14:00,75.2,74.3,29.59,SW,224,1.0,2.0,97,0.00,,,0.01,Wunderground v.1.15,2013-06-29 13:14:00,
2013-06-29 09:20:00,75.7,74.8,29.59,SW,224,1.0,1.0,97,0.00,,,0.01,Wunderground v.1.15,2013-06-29 13:20:00,
2013-06-29 09:26:00,76.1,74.9,29.59,WSW,238,1.0,2.0,96,0.00,,,0.01,Wunderground v.1.15,2013-06-29 13:26:00,
2013-06-29 09:32:00,75.9,74.4,29.59,WSW,253,1.0,1.0,95,0.00,,,0.01,Wunderground v.1.15,2013-06-29 13:32:00,
2013-06-29 09:38:00,76.2,74.7,29.60,SSE,156,1.0,2.0,95,0.00,,,0.01,Wunderground v.1.15,2013-06-29 13:38:00,
2013-06-29 09:44:00,77.3,74.8,29.59,WSW,252,1.0,2.0,92,0.00,,,0.01,Wunderground v.1.15,2013-06-29 13:44:00,
2013-06-29 09:50:00,78.6,74.4,29.59,WSW,252,1.0,1.0,87,0.00,,,0.01,Wunderground v.1.15,2013-06-29 13:50:00,
2013-06-29 09:56:00,80.2,74.9,29.59,North,8,1.0,4.0,84,0.00,,,0.01,Wunderground v.1.15,2013-06-29 13:56:00,
2013-06-29 10:01:00,81.2,75.2,29.59,North,10,0.0,1.0,82,0.00,,,0.01,Wunderground v.1.15,2013-06-29 14:01:00,
2013-06-29 10:07:00,81.1,74.3,29.59,North,10,0.0,1.0,80,0.00,,,0.01,Wunderground v.1.15,2013-06-29 14:07:00,
2013-06-29 10:13:00,81.1,74.0,29.59,WNW,303,0.0,2.0,79,0.00,,,0.01,Wunderground v.1.15,2013-06-29 14:13:00,
2013-06-29 10:19:00,81.6,74.1,29.60,WNW,303,1.0,2.0,78,0.00,,,0.01,Wunderground v.1.15,2013-06-29 14:19:00,
2013-06-29 10:25:00,82.1,74.2,29.60,WNW,303,1.0,2.0,77,0.00,,,0.01,Wunderground v.1.15,2013-06-29 14:25:00,
2013-06-29 10:31:00,82.5,74.2,29.60,North,11,1.0,1.0,76,0.00,,,0.01,Wunderground v.1.15,2013-06-29 14:31:00,
2013-06-29 10:37:00,83.0,73.4,29.60,North,11,1.0,1.0,73,0.00,,,0.01,Wunderground v.1.15,2013-06-29 14:37:00,
2013-06-29 10:43:00,83.4,73.8,29.60,NNE,21,0.0,2.0,73,0.00,,,0.01,Wunderground v.1.15,2013-06-29 14:43:00,
2013-06-29 10:49:00,84.0,74.0,29.60,NE,40,1.0,2.0,72,0.00,,,0.01,Wunderground v.1.15,2013-06-29 14:49:00,
2013-06-29 10:54:00,83.9,73.1,29.60,SSE,165,1.0,3.0,70,0.00,,,0.01,Wunderground v.1.15,2013-06-29 14:54:00,
2013-06-29 11:00:00,84.1,73.7,29.60,SE,144,1.0,1.0,71,0.00,,,0.01,Wunderground v.1.15,2013-06-29 15:00:00,
2013-06-29 11:06:00,84.5,72.8,29.60,SW,217,1.0,2.0,68,0.00,,,0.01,Wunderground v.1.15,2013-06-29 15:06:00,
2013-06-29 11:12:00,84.4,72.7,29.60,SW,215,1.0,2.0,68,0.00,,,0.01,Wunderground v.1.15,2013-06-29 15:12:00,
2013-06-29 11:18:00,84.8,73.5,29.60,SSW,209,1.0,2.0,69,0.00,,,0.01,Wunderground v.1.15,2013-06-29 15:18:00,
2013-06-29 11:24:00,85.2,72.6,29.60,SE,124,1.0,3.0,66,0.00,,,0.01,Wunderground v.1.15,2013-06-29 15:24:00,
2013-06-29 11:30:00,85.6,72.9,29.60,SE,124,1.0,2.0,66,0.00,,,0.01,Wunderground v.1.15,2013-06-29 15:30:00,
2013-06-29 11:36:00,85.5,73.7,29.60,SE,125,2.0,4.0,68,0.00,,,0.01,Wunderground v.1.15,2013-06-29 15:36:00,
2013-06-29 11:41:00,85.4,74.1,29.60,East,95,2.0,3.0,69,0.00,,,0.01,Wunderground v.1.15,2013-06-29 15:41:00,
2013-06-29 11:47:00,85.6,73.8,29.60,East,95,2.0,3.0,68,0.00,,,0.01,Wunderground v.1.15,2013-06-29 15:47:00,
2013-06-29 11:52:00,85.6,73.4,29.60,East,95,1.0,2.0,67,0.00,,,0.01,Wunderground v.1.15,2013-06-29 15:52:00,
2013-06-29 11:58:00,85.6,73.4,29.60,SE,130,1.0,3.0,67,0.00,,,0.01,Wunderground v.1.15,2013-06-29 15:58:00,
2013-06-29 12:04:00,85.5,73.7,29.60,SE,130,2.0,4.0,68,0.00,,,0.01,Wunderground v.1.15,2013-06-29 16:04:00,
2013-06-29 12:10:00,85.5,74.2,29.60,SE,124,2.0,4.0,69,0.00,,,0.01,Wunderground v.1.15,2013-06-29 16:10:00,
2013-06-29 12:16:00,85.3,74.0,29.60,SE,127,2.0,4.0,69,0.00,,,0.01,Wunderground v.1.15,2013-06-29 16:16:00,
2013-06-29 12:22:00,85.2,73.9,29.60,ESE,114,2.0,4.0,69,0.00,,,0.01,Wunderground v.1.15,2013-06-29 16:22:00,
2013-06-29 12:28:00,85.2,73.9,29.60,SSE,157,3.0,5.0,69,0.00,,,0.01,Wunderground v.1.15,2013-06-29 16:28:00,
2013-06-29 12:33:00,85.2,73.9,29.60,SSE,151,3.0,5.0,69,0.00,,,0.01,Wunderground v.1.15,2013-06-29 16:33:00,
2013-06-29 12:39:00,85.1,73.8,29.60,ESE,117,3.0,5.0,69,0.00,,,0.01,Wunderground v.1.15,2013-06-29 16:39:00,
2013-06-29 12:45:00,85.2,73.4,29.60,SSE,148,2.0,4.0,68,0.00,,,0.01,Wunderground v.1.15,2013-06-29 16:45:00,
2013-06-29 12:51:00,85.7,73.9,29.60,SSE,149,2.0,4.0,68,0.00,,,0.01,Wunderground v.1.15,2013-06-29 16:51:00,
2013-06-29 12:57:00,85.9,73.7,29.59,SE,132,2.0,4.0,67,0.00,,,0.01,Wunderground v.1.15,2013-06-29 16:57:00,
2013-06-29 13:03:00,86.0,73.8,29.59,SE,125,2.0,4.0,67,0.00,,,0.01,Wunderground v.1.15,2013-06-29 17:03:00,
2013-06-29 13:09:00,85.8,73.1,29.60,SE,144,3.0,5.0,66,0.00,,,0.01,Wunderground v.1.15,2013-06-29 17:09:00,
2013-06-29 13:15:00,85.8,74.0,29.60,SSE,150,3.0,4.0,68,0.00,,,0.01,Wunderground v.1.15,2013-06-29 17:15:00,
2013-06-29 13:20:00,85.9,74.1,29.60,SE,124,3.0,4.0,68,0.00,,,0.01,Wunderground v.1.15,2013-06-29 17:20:00,
2013-06-29 13:26:00,86.2,74.0,29.60,SE,136,3.0,4.0,67,0.00,,,0.01,Wunderground v.1.15,2013-06-29 17:26:00,
2013-06-29 13:32:00,86.6,73.9,29.60,ESE,119,2.0,4.0,66,0.00,,,0.01,Wunderground v.1.15,2013-06-29 17:32:00,
2013-06-29 13:38:00,86.6,74.3,29.60,SSE,147,3.0,4.0,67,0.00,,,0.01,Wunderground v.1.15,2013-06-29 17:38:00,
2013-06-29 13:44:00,86.6,74.8,29.60,SE,126,3.0,4.0,68,0.00,,,0.01,Wunderground v.1.15,2013-06-29 17:44:00,
2013-06-29 13:50:00,86.8,75.0,29.60,SSE,149,3.0,3.0,68,0.00,,,0.01,Wunderground v.1.15,2013-06-29 17:50:00,
2013-06-29 13:56:00,86.8,75.0,29.60,ESE,112,3.0,4.0,68,0.00,,,0.01,Wunderground v.1.15,2013-06-29 17:56:00,
2013-06-29 14:01:00,87.0,75.2,29.60,SE,133,3.0,5.0,68,0.00,,,0.01,Wunderground v.1.15,2013-06-29 18:01:00,
2013-06-29 14:07:00,87.1,74.4,29.60,SE,132,3.0,5.0,66,0.00,,,0.01,Wunderground v.1.15,2013-06-29 18:07:00,
2013-06-29 14:13:00,87.1,74.4,29.60,SE,140,3.0,6.0,66,0.00,,,0.01,Wunderground v.1.15,2013-06-29 18:13:00,
2013-06-29 14:19:00,86.9,74.2,29.60,SE,130,4.0,6.0,66,0.00,,,0.01,Wunderground v.1.15,2013-06-29 18:19:00,
2013-06-29 14:25:00,87.0,74.3,29.60,SE,142,3.0,5.0,66,0.00,,,0.01,Wunderground v.1.15,2013-06-29 18:25:00,
2013-06-29 14:31:00,87.0,73.8,29.60,SE,141,3.0,5.0,65,0.00,,,0.01,Wunderground v.1.15,2013-06-29 18:31:00,
2013-06-29 14:37:00,87.5,73.8,29.60,SE,142,3.0,5.0,64,0.00,,,0.01,Wunderground v.1.15,2013-06-29 18:37:00,
2013-06-29 14:43:00,87.6,74.4,29.60,SSE,161,3.0,5.0,65,0.00,,,0.01,Wunderground v.1.15,2013-06-29 18:43:00,
2013-06-29 14:48:00,87.7,74.0,29.60,SSE,153,3.0,5.0,64,0.00,,,0.01,Wunderground v.1.15,2013-06-29 18:48:00,
2013-06-29 14:54:00,87.7,74.5,29.60,SE,140,3.0,5.0,65,0.00,,,0.01,Wunderground v.1.15,2013-06-29 18:54:00,
2013-06-29 15:00:00,87.8,74.6,29.60,SE,138,3.0,5.0,65,0.00,,,0.01,Wunderground v.1.15,2013-06-29 19:00:00,
2013-06-29 15:06:00,87.9,74.7,29.60,SE,140,3.0,5.0,65,0.00,,,0.01,Wunderground v.1.15,2013-06-29 19:06:00,
2013-06-29 15:12:00,88.0,73.8,29.61,SE,134,2.0,5.0,63,0.00,,,0.01,Wunderground v.1.15,2013-06-29 19:12:00,
2013-06-29 15:18:00,87.9,74.2,29.61,SE,140,2.0,5.0,64,0.00,,,0.01,Wunderground v.1.15,2013-06-29 19:18:00,
2013-06-29 16:59:00,85.3,74.0,29.60,SE,142,2.0,4.0,69,0.00,,,0.01,Wunderground v.1.15,2013-06-29 20:59:00,
2013-06-29 17:04:00,85.3,73.5,29.61,South,185,2.0,4.0,68,0.00,,,0.01,Wunderground v.1.15,2013-06-29 21:04:00,
2013-06-29 17:09:00,85.4,74.5,29.61,SE,140,2.0,5.0,70,0.00,,,0.01,Wunderground v.1.15,2013-06-29 21:09:00,
2013-06-29 17:14:00,85.3,74.0,29.60,SE,146,2.0,4.0,69,0.00,,,0.01,Wunderground v.1.15,2013-06-29 21:14:00,
2013-06-29 17:19:00,85.0,73.3,29.60,SSE,163,3.0,4.0,68,0.00,,,0.01,Wunderground v.1.15,2013-06-29 21:19:00,
2013-06-29 17:25:00,84.7,73.8,29.60,SSE,167,3.0,7.0,70,0.00,,,0.01,Wunderground v.1.15,2013-06-29 21:25:00,
2013-06-29 17:30:00,84.4,73.5,29.60,South,170,3.0,3.0,70,0.00,,,0.01,Wunderground v.1.15,2013-06-29 21:30:00,
2013-06-29 17:35:00,84.2,74.2,29.60,SSE,151,3.0,5.0,72,0.00,,,0.01,Wunderground v.1.15,2013-06-29 21:35:00,
2013-06-29 17:40:00,84.1,74.5,29.59,SE,143,2.0,4.0,73,0.00,,,0.01,Wunderground v.1.15,2013-06-29 21:40:00,
2013-06-29 17:45:00,83.9,74.7,29.59,South,170,2.0,4.0,74,0.00,,,0.01,Wunderground v.1.15,2013-06-29 21:45:00,
2013-06-29 17:50:00,83.8,75.0,29.59,SSE,149,2.0,4.0,75,0.00,,,0.01,Wunderground v.1.15,2013-06-29 21:50:00,
2013-06-29 17:56:00,83.7,74.9,29.59,SE,132,2.0,4.0,75,0.00,,,0.01,Wunderground v.1.15,2013-06-29 21:56:00,
2013-06-29 18:01:00,83.7,75.7,29.59,SSW,203,3.0,7.0,77,0.00,,,0.01,Wunderground v.1.15,2013-06-29 22:01:00,
2013-06-29 18:07:00,83.6,76.4,29.59,SSE,166,3.0,7.0,79,0.00,,,0.01,Wunderground v.1.15,2013-06-29 22:07:00,
2013-06-29 18:12:00,83.2,76.0,29.60,SE,126,3.0,7.0,79,0.00,,,0.01,Wunderground v.1.15,2013-06-29 22:12:00,
2013-06-29 18:17:00,83.1,76.3,29.60,SSE,150,3.0,7.0,80,0.00,,,0.01,Wunderground v.1.15,2013-06-29 22:17:00,
2013-06-29 18:22:00,83.0,76.2,29.60,SSE,166,1.0,7.0,80,0.00,,,0.01,Wunderground v.1.15,2013-06-29 22:22:00,
2013-06-29 18:28:00,82.9,76.1,29.60,SSW,212,2.0,7.0,80,0.00,,,0.01,Wunderground v.1.15,2013-06-29 22:28:00,
2013-06-29 18:33:00,82.7,75.9,29.61,SSW,207,2.0,7.0,80,0.00,,,0.01,Wunderground v.1.15,2013-06-29 22:33:00,
2013-06-29 18:38:00,82.6,75.8,29.61,SSW,198,3.0,7.0,80,0.00,,,0.01,Wunderground v.1.15,2013-06-29 22:38:00,
2013-06-29 18:43:00,82.4,75.6,29.61,South,182,2.0,7.0,80,0.00,,,0.01,Wunderground v.1.15,2013-06-29 22:43:00,
2013-06-29 18:48:00,82.3,75.9,29.61,SE,141,3.0,7.0,81,0.00,,,0.01,Wunderground v.1.15,2013-06-29 22:48:00,
2013-06-29 18:53:00,82.1,76.1,29.61,South,181,4.0,7.0,82,0.00,,,0.01,Wunderground v.1.15,2013-06-29 22:53:00,
2013-06-29 18:58:00,82.0,76.3,29.61,SW,228,3.0,7.0,83,0.00,,,0.01,Wunderground v.1.15,2013-06-29 22:58:00,
2013-06-29 19:04:00,81.8,75.8,29.61,SSE,165,4.0,9.0,82,0.00,,,0.01,Wunderground v.1.15,2013-06-29 23:04:00,
2013-06-29 19:09:00,81.7,75.7,29.62,SSE,168,3.0,9.0,82,0.00,,,0.01,Wunderground v.1.15,2013-06-29 23:09:00,
2013-06-29 19:14:00,81.7,76.0,29.62,SSE,149,3.0,9.0,83,0.00,,,0.01,Wunderground v.1.15,2013-06-29 23:14:00,
2013-06-29 19:19:00,81.7,76.4,29.62,South,172,3.0,9.0,84,0.00,,,0.01,Wunderground v.1.15,2013-06-29 23:19:00,
2013-06-29 19:24:00,81.7,76.7,29.63,South,178,3.0,9.0,85,0.00,,,0.01,Wunderground v.1.15,2013-06-29 23:24:00,
2013-06-29 19:30:00,81.5,76.6,29.63,SE,133,3.0,3.0,85,0.00,,,0.01,Wunderground v.1.15,2013-06-29 23:30:00,
2013-06-29 19:35:00,81.4,76.5,29.63,SSE,165,3.0,9.0,85,0.00,,,0.01,Wunderground v.1.15,2013-06-29 23:35:00,
2013-06-29 19:40:00,81.2,76.3,29.63,South,170,3.0,3.0,85,0.00,,,0.01,Wunderground v.1.15,2013-06-29 23:40:00,
2013-06-29 19:45:00,81.1,76.2,29.63,SSE,158,3.0,9.0,85,0.00,,,0.01,Wunderground v.1.15,2013-06-29 23:45:00,
2013-06-29 19:50:00,81.0,75.7,29.63,South,182,4.0,4.0,84,0.00,,,0.01,Wunderground v.1.15,2013-06-29 23:50:00,
2013-06-29 19:56:00,80.9,75.6,29.63,South,180,3.0,9.0,84,0.00,,,0.01,Wunderground v.1.15,2013-06-29 23:56:00,
2013-06-29 20:01:00,80.9,75.2,29.63,SSW,212,3.0,9.0,83,0.00,,,0.01,Wunderground v.1.15,2013-06-30 00:01:00,
2013-06-29 20:07:00,80.9,75.6,29.63,South,175,4.0,9.0,84,0.00,,,0.01,Wunderground v.1.15,2013-06-30 00:07:00,
2013-06-29 20:12:00,81.0,76.1,29.64,SE,138,3.0,6.0,85,0.00,,,0.01,Wunderground v.1.15,2013-06-30 00:12:00,
2013-06-29 20:18:00,80.9,76.0,29.64,SSE,165,3.0,6.0,85,0.00,,,0.01,Wunderground v.1.15,2013-06-30 00:18:00,
2013-06-29 20:23:00,80.9,76.0,29.64,South,174,4.0,6.0,85,0.00,,,0.01,Wunderground v.1.15,2013-06-30 00:23:00,
2013-06-29 20:28:00,80.8,76.2,29.64,South,189,4.0,6.0,86,0.00,,,0.01,Wunderground v.1.15,2013-06-30 00:28:00,
2013-06-29 20:33:00,80.7,76.1,29.64,SSE,163,4.0,6.0,86,0.00,,,0.01,Wunderground v.1.15,2013-06-30 00:33:00,
2013-06-29 20:38:00,80.7,76.5,29.64,South,184,3.0,6.0,87,0.00,,,0.01,Wunderground v.1.15,2013-06-30 00:38:00,
2013-06-29 20:44:00,80.5,76.3,29.64,South,182,4.0,8.0,87,0.00,,,0.01,Wunderground v.1.15,2013-06-30 00:44:00,
2013-06-29 20:49:00,80.5,76.6,29.64,South,171,4.0,8.0,88,0.00,,,0.01,Wunderground v.1.15,2013-06-30 00:49:00,
2013-06-29 20:54:00,80.4,76.5,29.64,South,184,4.0,6.0,88,0.00,,,0.01,Wunderground v.1.15,2013-06-30 00:54:00,
2013-06-29 20:59:00,80.2,76.3,29.64,South,176,5.0,6.0,88,0.00,,,0.01,Wunderground v.1.15,2013-06-30 00:59:00,
2013-06-29 21:04:00,80.1,76.6,29.65,SW,231,5.0,10.0,89,0.00,,,0.01,Wunderground v.1.15,2013-06-30 01:04:00,
2013-06-29 21:10:00,80.0,76.5,29.65,South,174,5.0,5.0,89,0.00,,,0.01,Wunderground v.1.15,2013-06-30 01:10:00,
2013-06-29 21:15:00,80.0,76.5,29.65,SW,234,4.0,10.0,89,0.00,,,0.01,Wunderground v.1.15,2013-06-30 01:15:00,
2013-06-29 21:20:00,80.0,76.8,29.65,SE,136,4.0,4.0,90,0.00,,,0.01,Wunderground v.1.15,2013-06-30 01:20:00,
2013-06-29 21:25:00,79.9,76.7,29.65,South,177,4.0,10.0,90,0.00,,,0.01,Wunderground v.1.15,2013-06-30 01:25:00,
2013-06-29 21:30:00,79.8,76.6,29.65,South,180,3.0,10.0,90,0.00,,,0.01,Wunderground v.1.15,2013-06-30 01:30:00,
2013-06-29 21:36:00,79.7,76.5,29.66,South,177,4.0,10.0,90,0.00,,,0.01,Wunderground v.1.15,2013-06-30 01:36:00,
2013-06-29 21:41:00,79.7,76.5,29.66,SW,217,3.0,6.0,90,0.00,,,0.01,Wunderground v.1.15,2013-06-30 01:41:00,
2013-06-29 21:46:00,79.6,76.4,29.66,South,182,4.0,10.0,90,0.00,,,0.01,Wunderground v.1.15,2013-06-30 01:46:00,
2013-06-29 21:51:00,79.5,76.3,29.66,South,169,4.0,4.0,90,0.00,,,0.01,Wunderground v.1.15,2013-06-30 01:51:00,
2013-06-29 21:56:00,79.5,76.3,29.67,NW,324,2.0,10.0,90,0.00,,,0.01,Wunderground v.1.15,2013-06-30 01:56:00,
2013-06-29 22:01:00,79.4,76.2,29.67,South,169,2.0,10.0,90,0.00,,,0.01,Wunderground v.1.15,2013-06-30 02:01:00,
2013-06-29 22:07:00,79.4,76.2,29.67,SSW,211,2.0,10.0,90,0.00,,,0.01,Wunderground v.1.15,2013-06-30 02:07:00,
2013-06-29 22:12:00,79.4,76.5,29.67,SSE,161,2.0,2.0,91,0.00,,,0.01,Wunderground v.1.15,2013-06-30 02:12:00,
2013-06-29 22:17:00,79.3,76.4,29.67,SSW,193,2.0,5.0,91,0.00,,,0.01,Wunderground v.1.15,2013-06-30 02:17:00,
2013-06-29 22:22:00,79.3,76.4,29.67,SSW,193,2.0,4.0,91,0.00,,,0.01,Wunderground v.1.15,2013-06-30 02:22:00,
2013-06-29 22:28:00,79.2,76.3,29.67,SSW,193,3.0,4.0,91,0.00,,,0.01,Wunderground v.1.15,2013-06-30 02:28:00,
2013-06-29 22:33:00,79.2,76.3,29.67,SSE,153,2.0,3.0,91,0.00,,,0.01,Wunderground v.1.15,2013-06-30 02:33:00,
2013-06-29 22:38:00,79.1,76.2,29.67,South,183,2.0,4.0,91,0.00,,,0.01,Wunderground v.1.15,2013-06-30 02:38:00,
2013-06-29 22:43:00,79.1,76.2,29.67,South,175,2.0,3.0,91,0.00,,,0.01,Wunderground v.1.15,2013-06-30 02:43:00,
2013-06-29 22:48:00,79.0,76.1,29.67,SSE,167,1.0,4.0,91,0.00,,,0.01,Wunderground v.1.15,2013-06-30 02:48:00,
2013-06-29 22:54:00,78.9,76.0,29.67,South,175,1.0,4.0,91,0.00,,,0.01,Wunderground v.1.15,2013-06-30 02:54:00,
2013-06-29 22:59:00,78.8,75.9,29.67,SSE,149,1.0,4.0,91,0.00,,,0.01,Wunderground v.1.15,2013-06-30 02:59:00,
2013-06-29 23:04:00,78.7,75.8,29.67,SSE,149,1.0,2.0,91,0.00,,,0.01,Wunderground v.1.15,2013-06-30 03:04:00,
2013-06-29 23:09:00,78.6,75.8,29.67,SSE,157,1.0,2.0,91,0.00,,,0.01,Wunderground v.1.15,2013-06-30 03:09:00,
2013-06-29 23:14:00,78.5,75.3,29.67,SSW,193,1.0,2.0,90,0.00,,,0.01,Wunderground v.1.15,2013-06-30 03:14:00,
2013-06-29 23:20:00,78.5,75.3,29.68,SSW,193,0.0,2.0,90,0.00,,,0.01,Wunderground v.1.15,2013-06-30 03:20:00,
2013-06-29 23:25:00,78.4,75.2,29.67,SSW,193,0.0,2.0,90,0.00,,,0.01,Wunderground v.1.15,2013-06-30 03:25:00,
2013-06-29 23:30:00,78.3,75.1,29.68,SE,141,0.0,2.0,90,0.00,,,0.01,Wunderground v.1.15,2013-06-30 03:30:00,
2013-06-29 23:35:00,78.2,75.0,29.68,WNW,296,1.0,2.0,90,0.00,,,0.01,Wunderground v.1.15,2013-06-30 03:35:00,
2013-06-29 23:40:00,78.2,75.0,29.68,SSW,212,1.0,2.0,90,0.00,,,0.01,Wunderground v.1.15,2013-06-30 03:40:00,
2013-06-29 23:46:00,78.1,74.9,29.68,SSW,211,1.0,2.0,90,0.00,,,0.01,Wunderground v.1.15,2013-06-30 03:46:00,
2013-06-29 23:51:00,78.0,74.8,29.68,SSE,148,0.0,2.0,90,0.00,,,0.01,Wunderground v.1.15,2013-06-30 03:51:00,
2013-06-29 23:56:00,77.9,74.7,29.68,SSW,193,1.0,3.0,90,0.00,,,0.01,Wunderground v.1.15,2013-06-30 03:56:00,